sensor_id;sensor_type;location;lat;lon;timestamp;pressure;altitude;pressure_sealevel;temperature;humidity
3697;BME280;60662;48.810;8.872;2023-08-08T04:59:05;96707.03;;;10.91;90.98
3697;BME280;60662;48.810;8.872;2023-08-08T05:00:08;96719.75;;;10.99;90.81
3697;BME280;60662;48.810;8.872;2023-08-08T06:59:21;96713.16;;;15.49;72.30
3697;BME280;60662;48.810;8.872;2023-08-08T07:01:39;96713.03;;;15.65;71.45
3697;BME280;60662;48.810;8.872;2023-08-08T07:03:56;96712.31;;;15.90;71.18
3697;BME280;60662;48.810;8.872;2023-08-08T07:04:58;96720.16;;;15.77;70.78
3697;BME280;60662;48.810;8.872;2023-08-08T07:07:16;96712.66;;;15.98;71.20
3697;BME280;60662;48.810;8.872;2023-08-08T07:08:19;96715.69;;;16.20;70.99
3697;BME280;60662;48.810;8.872;2023-08-08T07:09:20;96714.94;;;16.18;70.41
3697;BME280;60662;48.810;8.872;2023-08-08T07:11:57;96717.69;;;15.74;70.36
3697;BME280;60662;48.810;8.872;2023-08-08T07:12:59;96718.94;;;15.83;71.49
3697;BME280;60662;48.810;8.872;2023-08-08T07:14:01;96718.25;;;15.79;70.92
3697;BME280;60662;48.810;8.872;2023-08-08T07:15:03;96716.13;;;15.86;70.91
3697;BME280;60662;48.810;8.872;2023-08-08T07:16:04;96711.28;;;15.93;70.45
3697;BME280;60662;48.810;8.872;2023-08-08T07:17:06;96717.44;;;16.06;70.44
3697;BME280;60662;48.810;8.872;2023-08-08T07:18:08;96710.13;;;15.97;70.55
3697;BME280;60662;48.810;8.872;2023-08-08T07:19:09;96705.00;;;16.08;70.96
3697;BME280;60662;48.810;8.872;2023-08-08T07:20:13;96714.00;;;16.31;70.59
3697;BME280;60662;48.810;8.872;2023-08-08T07:21:17;96706.75;;;16.35;69.71
3697;BME280;60662;48.810;8.872;2023-08-08T07:22:18;96710.03;;;16.39;69.99
3697;BME280;60662;48.810;8.872;2023-08-08T07:23:20;96702.84;;;16.28;70.56
3697;BME280;60662;48.810;8.872;2023-08-08T07:24:21;96705.41;;;16.42;70.05
3697;BME280;60662;48.810;8.872;2023-08-08T07:25:22;96709.97;;;16.53;69.67
3697;BME280;60662;48.810;8.872;2023-08-08T07:26:24;96700.13;;;16.55;69.71
3697;BME280;60662;48.810;8.872;2023-08-08T07:27:26;96706.56;;;16.38;70.01
3697;BME280;60662;48.810;8.872;2023-08-08T07:28:28;96713.19;;;16.44;69.64
3697;BME280;60662;48.810;8.872;2023-08-08T07:29:29;96713.94;;;16.59;69.35
3697;BME280;60662;48.810;8.872;2023-08-08T07:30:31;96706.88;;;16.46;69.66
3697;BME280;60662;48.810;8.872;2023-08-08T07:31:33;96703.91;;;16.38;69.85
3697;BME280;60662;48.810;8.872;2023-08-08T07:32:35;96708.03;;;16.68;69.16
3697;BME280;60662;48.810;8.872;2023-08-08T07:33:37;96708.69;;;16.59;69.15
3697;BME280;60662;48.810;8.872;2023-08-08T07:34:38;96710.59;;;16.83;68.72
3697;BME280;60662;48.810;8.872;2023-08-08T07:35:40;96705.22;;;16.71;68.64
3697;BME280;60662;48.810;8.872;2023-08-08T07:36:41;96710.59;;;17.08;68.31
3697;BME280;60662;48.810;8.872;2023-08-08T07:37:43;96704.28;;;17.48;67.47
3697;BME280;60662;48.810;8.872;2023-08-08T07:38:45;96701.47;;;17.75;66.74
3697;BME280;60662;48.810;8.872;2023-08-08T07:39:47;96711.59;;;17.82;66.64
3697;BME280;60662;48.810;8.872;2023-08-08T07:40:49;96709.38;;;17.51;65.25
3697;BME280;60662;48.810;8.872;2023-08-08T07:47:15;96703.09;;;16.76;68.42
3697;BME280;60662;48.810;8.872;2023-08-08T07:48:17;96707.34;;;16.92;68.73
3697;BME280;60662;48.810;8.872;2023-08-08T07:49:18;96701.75;;;16.84;68.68
3697;BME280;60662;48.810;8.872;2023-08-08T07:52:31;96703.22;;;17.01;68.22
3697;BME280;60662;48.810;8.872;2023-08-08T07:53:33;96707.03;;;16.96;67.43
3697;BME280;60662;48.810;8.872;2023-08-08T07:54:34;96700.25;;;16.79;65.61
3697;BME280;60662;48.810;8.872;2023-08-08T07:55:36;96703.00;;;16.65;66.43
3697;BME280;60662;48.810;8.872;2023-08-08T07:57:48;96699.94;;;16.71;66.91
3697;BME280;60662;48.810;8.872;2023-08-08T07:58:50;96699.84;;;16.73;66.66
3697;BME280;60662;48.810;8.872;2023-08-08T08:00:58;96701.00;;;16.81;67.10
3697;BME280;60662;48.810;8.872;2023-08-08T08:02:03;96705.84;;;16.75;66.59
3697;BME280;60662;48.810;8.872;2023-08-08T08:03:06;96704.47;;;16.69;65.97
3697;BME280;60662;48.810;8.872;2023-08-08T08:04:08;96705.84;;;16.88;66.15
3697;BME280;60662;48.810;8.872;2023-08-08T08:05:10;96703.00;;;16.91;65.85
3697;BME280;60662;48.810;8.872;2023-08-08T08:06:12;96708.19;;;17.05;65.99
3697;BME280;60662;48.810;8.872;2023-08-08T08:07:13;96699.59;;;17.27;66.23
3697;BME280;60662;48.810;8.872;2023-08-08T08:08:15;96701.69;;;17.35;64.61
3697;BME280;60662;48.810;8.872;2023-08-08T08:09:16;96696.28;;;17.50;62.83
3697;BME280;60662;48.810;8.872;2023-08-08T08:10:18;96695.16;;;17.65;62.61
3697;BME280;60662;48.810;8.872;2023-08-08T08:11:19;96695.06;;;17.67;62.04
3697;BME280;60662;48.810;8.872;2023-08-08T08:12:21;96691.47;;;17.68;62.22
3697;BME280;60662;48.810;8.872;2023-08-08T08:13:22;96700.22;;;17.68;62.17
3697;BME280;60662;48.810;8.872;2023-08-08T08:14:24;96691.59;;;17.66;62.08
3697;BME280;60662;48.810;8.872;2023-08-08T08:15:25;96688.19;;;17.64;61.55
3697;BME280;60662;48.810;8.872;2023-08-08T08:16:27;96690.78;;;17.77;61.53
3697;BME280;60662;48.810;8.872;2023-08-08T08:17:29;96701.34;;;17.77;62.24
3697;BME280;60662;48.810;8.872;2023-08-08T08:18:30;96698.75;;;17.88;62.04
3697;BME280;60662;48.810;8.872;2023-08-08T08:19:32;96694.09;;;17.68;62.23
3697;BME280;60662;48.810;8.872;2023-08-08T08:20:34;96692.41;;;17.67;61.05
3697;BME280;60662;48.810;8.872;2023-08-08T08:21:36;96693.66;;;17.74;60.91
3697;BME280;60662;48.810;8.872;2023-08-08T08:22:37;96694.94;;;17.92;61.21
3697;BME280;60662;48.810;8.872;2023-08-08T08:23:39;96692.09;;;17.58;61.39
3697;BME280;60662;48.810;8.872;2023-08-08T08:24:41;96689.69;;;17.55;62.17
3697;BME280;60662;48.810;8.872;2023-08-08T08:25:42;96692.63;;;17.63;62.84
3697;BME280;60662;48.810;8.872;2023-08-08T08:26:44;96688.00;;;17.54;62.08
3697;BME280;60662;48.810;8.872;2023-08-08T08:27:45;96694.47;;;17.50;62.29
3697;BME280;60662;48.810;8.872;2023-08-08T08:28:47;96696.22;;;17.62;62.30
3697;BME280;60662;48.810;8.872;2023-08-08T08:29:48;96697.13;;;17.74;62.27
3697;BME280;60662;48.810;8.872;2023-08-08T08:30:50;96683.88;;;17.87;61.38
3697;BME280;60662;48.810;8.872;2023-08-08T08:31:52;96693.03;;;18.19;60.32
3697;BME280;60662;48.810;8.872;2023-08-08T08:32:53;96693.91;;;17.95;60.79
3697;BME280;60662;48.810;8.872;2023-08-08T08:33:55;96694.44;;;18.11;60.70
3697;BME280;60662;48.810;8.872;2023-08-08T08:34:56;96693.31;;;18.03;61.38
3697;BME280;60662;48.810;8.872;2023-08-08T08:35:58;96684.72;;;17.88;61.12
3697;BME280;60662;48.810;8.872;2023-08-08T08:36:59;96686.94;;;17.81;61.92
3697;BME280;60662;48.810;8.872;2023-08-08T08:38:01;96691.91;;;17.86;61.56
3697;BME280;60662;48.810;8.872;2023-08-08T08:39:02;96685.13;;;17.70;61.65
3697;BME280;60662;48.810;8.872;2023-08-08T08:40:05;96685.38;;;17.78;62.12
3697;BME280;60662;48.810;8.872;2023-08-08T08:41:08;96682.41;;;17.59;62.19
3697;BME280;60662;48.810;8.872;2023-08-08T08:42:14;96688.81;;;17.43;61.77
3697;BME280;60662;48.810;8.872;2023-08-08T08:43:17;96684.19;;;17.58;60.65
3697;BME280;60662;48.810;8.872;2023-08-08T08:44:19;96672.97;;;17.92;60.70
3697;BME280;60662;48.810;8.872;2023-08-08T08:45:22;96682.88;;;18.01;59.86
3697;BME280;60662;48.810;8.872;2023-08-08T08:46:25;96681.53;;;18.20;59.77
3697;BME280;60662;48.810;8.872;2023-08-08T08:47:29;96679.63;;;17.98;59.71
3697;BME280;60662;48.810;8.872;2023-08-08T08:48:32;96674.09;;;17.76;60.64
3697;BME280;60662;48.810;8.872;2023-08-08T08:49:34;96681.59;;;17.83;60.90
3697;BME280;60662;48.810;8.872;2023-08-08T08:50:37;96675.91;;;18.00;60.51
3697;BME280;60662;48.810;8.872;2023-08-08T08:51:40;96678.06;;;18.31;59.68
3697;BME280;60662;48.810;8.872;2023-08-08T08:52:42;96681.97;;;18.49;60.80
3697;BME280;60662;48.810;8.872;2023-08-08T08:53:44;96680.16;;;18.14;60.16
3697;BME280;60662;48.810;8.872;2023-08-08T08:54:47;96684.34;;;18.05;60.19
3697;BME280;60662;48.810;8.872;2023-08-08T08:55:50;96682.38;;;17.96;60.40
3697;BME280;60662;48.810;8.872;2023-08-08T08:56:52;96687.66;;;17.96;59.10
3697;BME280;60662;48.810;8.872;2023-08-08T08:57:54;96677.53;;;18.14;59.07
3697;BME280;60662;48.810;8.872;2023-08-08T08:58:56;96674.47;;;18.43;59.49
3697;BME280;60662;48.810;8.872;2023-08-08T08:59:58;96681.50;;;18.67;58.91
3697;BME280;60662;48.810;8.872;2023-08-08T09:01:00;96678.03;;;18.77;58.89
3697;BME280;60662;48.810;8.872;2023-08-08T09:02:02;96687.78;;;18.30;58.00
3697;BME280;60662;48.810;8.872;2023-08-08T09:03:04;96684.50;;;18.15;58.59
3697;BME280;60662;48.810;8.872;2023-08-08T09:04:07;96684.19;;;17.95;58.48
3697;BME280;60662;48.810;8.872;2023-08-08T09:05:10;96680.03;;;17.67;58.81
3697;BME280;60662;48.810;8.872;2023-08-08T09:06:13;96686.13;;;18.05;58.92
3697;BME280;60662;48.810;8.872;2023-08-08T09:07:18;96678.22;;;18.40;58.50
3697;BME280;60662;48.810;8.872;2023-08-08T09:08:22;96678.50;;;18.24;58.95
3697;BME280;60662;48.810;8.872;2023-08-08T09:09:23;96677.97;;;18.32;59.33
3697;BME280;60662;48.810;8.872;2023-08-08T09:10:26;96678.75;;;18.68;59.01
3697;BME280;60662;48.810;8.872;2023-08-08T09:11:28;96674.63;;;18.53;57.47
3697;BME280;60662;48.810;8.872;2023-08-08T09:12:31;96677.97;;;18.55;58.39
3697;BME280;60662;48.810;8.872;2023-08-08T09:13:39;96684.66;;;18.83;58.07
3697;BME280;60662;48.810;8.872;2023-08-08T09:14:41;96679.75;;;19.24;57.26
3697;BME280;60662;48.810;8.872;2023-08-08T09:15:47;96674.13;;;19.17;56.67
3697;BME280;60662;48.810;8.872;2023-08-08T09:16:50;96680.38;;;19.05;56.82
3697;BME280;60662;48.810;8.872;2023-08-08T09:17:53;96679.97;;;19.09;57.58
3697;BME280;60662;48.810;8.872;2023-08-08T09:18:55;96680.38;;;18.93;57.36
3697;BME280;60662;48.810;8.872;2023-08-08T09:19:57;96677.47;;;19.08;57.88
3697;BME280;60662;48.810;8.872;2023-08-08T09:21:00;96677.69;;;18.82;57.56
3697;BME280;60662;48.810;8.872;2023-08-08T09:22:01;96669.81;;;18.47;57.09
3697;BME280;60662;48.810;8.872;2023-08-08T09:23:03;96667.41;;;18.55;57.67
3697;BME280;60662;48.810;8.872;2023-08-08T09:24:05;96672.56;;;18.92;57.31
3697;BME280;60662;48.810;8.872;2023-08-08T09:25:07;96672.31;;;18.95;57.13
3697;BME280;60662;48.810;8.872;2023-08-08T09:26:09;96676.63;;;19.30;56.50
3697;BME280;60662;48.810;8.872;2023-08-08T09:27:11;96666.19;;;19.17;56.44
3697;BME280;60662;48.810;8.872;2023-08-08T09:28:12;96663.94;;;19.45;56.27
3697;BME280;60662;48.810;8.872;2023-08-08T09:29:14;96664.31;;;19.52;55.19
3697;BME280;60662;48.810;8.872;2023-08-08T09:30:17;96669.13;;;19.47;55.81
3697;BME280;60662;48.810;8.872;2023-08-08T09:31:18;96669.31;;;19.66;55.37
3697;BME280;60662;48.810;8.872;2023-08-08T09:32:20;96659.97;;;19.51;55.26
3697;BME280;60662;48.810;8.872;2023-08-08T09:33:21;96673.25;;;19.17;55.42
3697;BME280;60662;48.810;8.872;2023-08-08T09:34:26;96666.63;;;18.77;56.42
3697;BME280;60662;48.810;8.872;2023-08-08T09:35:30;96673.59;;;19.12;56.38
3697;BME280;60662;48.810;8.872;2023-08-08T09:36:33;96671.31;;;19.30;56.11
3697;BME280;60662;48.810;8.872;2023-08-08T09:37:35;96671.50;;;19.61;54.96
3697;BME280;60662;48.810;8.872;2023-08-08T09:38:36;96667.19;;;20.04;54.36
3697;BME280;60662;48.810;8.872;2023-08-08T09:39:38;96668.41;;;20.21;54.60
3697;BME280;60662;48.810;8.872;2023-08-08T09:40:40;96662.97;;;20.22;54.54
3697;BME280;60662;48.810;8.872;2023-08-08T09:41:42;96668.56;;;20.19;53.61
3697;BME280;60662;48.810;8.872;2023-08-08T09:42:43;96656.41;;;19.73;53.81
3697;BME280;60662;48.810;8.872;2023-08-08T09:43:45;96659.50;;;19.89;53.81
3697;BME280;60662;48.810;8.872;2023-08-08T09:44:46;96658.81;;;19.87;53.79
3697;BME280;60662;48.810;8.872;2023-08-08T09:45:48;96657.31;;;19.51;53.30
3697;BME280;60662;48.810;8.872;2023-08-08T09:46:49;96668.38;;;19.56;53.73
3697;BME280;60662;48.810;8.872;2023-08-08T09:47:51;96661.94;;;19.81;54.19
3697;BME280;60662;48.810;8.872;2023-08-08T09:48:54;96647.13;;;19.90;54.41
3697;BME280;60662;48.810;8.872;2023-08-08T09:50:00;96664.69;;;20.45;53.12
3697;BME280;60662;48.810;8.872;2023-08-08T09:51:03;96658.72;;;20.31;53.41
3697;BME280;60662;48.810;8.872;2023-08-08T09:52:06;96661.06;;;20.25;53.47
3697;BME280;60662;48.810;8.872;2023-08-08T09:53:08;96662.47;;;20.08;54.46
3697;BME280;60662;48.810;8.872;2023-08-08T09:54:10;96656.78;;;20.12;54.66
3697;BME280;60662;48.810;8.872;2023-08-08T09:55:13;96659.16;;;19.94;54.49
3697;BME280;60662;48.810;8.872;2023-08-08T09:56:16;96667.13;;;19.83;53.25
3697;BME280;60662;48.810;8.872;2023-08-08T09:57:17;96649.69;;;19.69;53.87
3697;BME280;60662;48.810;8.872;2023-08-08T09:58:19;96647.63;;;19.84;54.23
3697;BME280;60662;48.810;8.872;2023-08-08T09:59:21;96655.41;;;19.97;54.56
3697;BME280;60662;48.810;8.872;2023-08-08T10:00:23;96665.41;;;19.93;54.28
3697;BME280;60662;48.810;8.872;2023-08-08T10:01:27;96653.88;;;19.71;54.62
3697;BME280;60662;48.810;8.872;2023-08-08T10:02:29;96664.28;;;19.63;54.17
3697;BME280;60662;48.810;8.872;2023-08-08T10:03:31;96661.69;;;20.17;53.50
3697;BME280;60662;48.810;8.872;2023-08-08T10:04:34;96654.41;;;20.51;52.05
3697;BME280;60662;48.810;8.872;2023-08-08T10:05:35;96652.97;;;20.68;52.79
3697;BME280;60662;48.810;8.872;2023-08-08T10:06:38;96647.63;;;20.90;52.07
3697;BME280;60662;48.810;8.872;2023-08-08T10:07:41;96650.00;;;20.83;51.20
3697;BME280;60662;48.810;8.872;2023-08-08T10:08:42;96663.44;;;20.49;52.56
3697;BME280;60662;48.810;8.872;2023-08-08T10:09:44;96651.53;;;20.64;52.56
3697;BME280;60662;48.810;8.872;2023-08-08T10:10:47;96652.22;;;20.35;52.24
3697;BME280;60662;48.810;8.872;2023-08-08T10:11:50;96654.06;;;20.23;53.13
3697;BME280;60662;48.810;8.872;2023-08-08T10:12:52;96648.38;;;20.70;52.26
3697;BME280;60662;48.810;8.872;2023-08-08T10:13:54;96647.56;;;21.01;52.52
3697;BME280;60662;48.810;8.872;2023-08-08T10:14:56;96643.22;;;21.00;51.91
3697;BME280;60662;48.810;8.872;2023-08-08T10:15:57;96646.81;;;20.89;51.73
3697;BME280;60662;48.810;8.872;2023-08-08T10:17:05;96642.16;;;21.12;51.59
3697;BME280;60662;48.810;8.872;2023-08-08T10:18:07;96646.16;;;20.97;51.40
3697;BME280;60662;48.810;8.872;2023-08-08T10:19:09;96643.84;;;21.13;50.33
3697;BME280;60662;48.810;8.872;2023-08-08T10:20:11;96658.13;;;20.91;49.44
3697;BME280;60662;48.810;8.872;2023-08-08T10:21:13;96656.81;;;20.54;49.85
3697;BME280;60662;48.810;8.872;2023-08-08T10:22:21;96650.00;;;20.41;49.93
3697;BME280;60662;48.810;8.872;2023-08-08T10:23:23;96656.66;;;20.77;50.67
3697;BME280;60662;48.810;8.872;2023-08-08T10:24:25;96662.88;;;20.87;51.51
3697;BME280;60662;48.810;8.872;2023-08-08T10:25:28;96646.78;;;20.37;49.65
3697;BME280;60662;48.810;8.872;2023-08-08T10:26:30;96650.66;;;20.12;51.28
3697;BME280;60662;48.810;8.872;2023-08-08T10:27:36;96642.06;;;19.75;52.16
3697;BME280;60662;48.810;8.872;2023-08-08T10:28:38;96647.97;;;19.79;52.34
3697;BME280;60662;48.810;8.872;2023-08-08T10:29:39;96660.53;;;19.66;53.12
3697;BME280;60662;48.810;8.872;2023-08-08T10:30:55;96653.03;;;19.94;51.44
3697;BME280;60662;48.810;8.872;2023-08-08T10:32:02;96652.78;;;20.39;50.43
3697;BME280;60662;48.810;8.872;2023-08-08T10:33:04;96651.97;;;20.06;50.62
3697;BME280;60662;48.810;8.872;2023-08-08T10:34:06;96661.44;;;20.20;51.35
3697;BME280;60662;48.810;8.872;2023-08-08T10:35:09;96656.34;;;20.70;49.61
3697;BME280;60662;48.810;8.872;2023-08-08T10:36:12;96653.88;;;21.10;49.48
3697;BME280;60662;48.810;8.872;2023-08-08T10:37:16;96653.72;;;21.01;48.83
3697;BME280;60662;48.810;8.872;2023-08-08T10:38:19;96652.28;;;21.28;48.53
3697;BME280;60662;48.810;8.872;2023-08-08T10:39:24;96649.91;;;21.35;48.57
3697;BME280;60662;48.810;8.872;2023-08-08T10:40:32;96650.63;;;21.47;48.67
3697;BME280;60662;48.810;8.872;2023-08-08T10:41:44;96649.19;;;21.33;47.89
3697;BME280;60662;48.810;8.872;2023-08-08T10:42:46;96653.66;;;21.93;47.97
3697;BME280;60662;48.810;8.872;2023-08-08T10:43:56;96654.13;;;20.76;49.00
3697;BME280;60662;48.810;8.872;2023-08-08T10:45:00;96651.88;;;20.50;48.92
3697;BME280;60662;48.810;8.872;2023-08-08T10:46:03;96655.88;;;20.65;49.78
3697;BME280;60662;48.810;8.872;2023-08-08T10:47:14;96649.00;;;20.63;49.46
3697;BME280;60662;48.810;8.872;2023-08-08T10:48:16;96656.53;;;20.58;49.56
3697;BME280;60662;48.810;8.872;2023-08-08T10:49:19;96645.94;;;21.19;49.44
3697;BME280;60662;48.810;8.872;2023-08-08T10:50:24;96661.78;;;20.90;48.95
3697;BME280;60662;48.810;8.872;2023-08-08T10:51:39;96650.28;;;20.80;50.17
3697;BME280;60662;48.810;8.872;2023-08-08T10:52:53;96643.56;;;20.64;50.04
3697;BME280;60662;48.810;8.872;2023-08-08T10:53:57;96643.34;;;20.98;50.19
3697;BME280;60662;48.810;8.872;2023-08-08T10:54:58;96637.38;;;21.06;50.28
3697;BME280;60662;48.810;8.872;2023-08-08T10:56:03;96654.72;;;20.79;49.28
3697;BME280;60662;48.810;8.872;2023-08-08T10:57:15;96644.06;;;20.48;49.91
3697;BME280;60662;48.810;8.872;2023-08-08T10:58:17;96647.22;;;20.21;49.51
3697;BME280;60662;48.810;8.872;2023-08-08T10:59:26;96641.03;;;20.32;50.77
3697;BME280;60662;48.810;8.872;2023-08-08T11:00:30;96652.59;;;20.73;49.14
3697;BME280;60662;48.810;8.872;2023-08-08T11:01:32;96646.00;;;21.39;49.63
3697;BME280;60662;48.810;8.872;2023-08-08T11:02:34;96637.44;;;21.96;47.51
3697;BME280;60662;48.810;8.872;2023-08-08T11:03:39;96645.56;;;21.94;47.78
3697;BME280;60662;48.810;8.872;2023-08-08T11:04:41;96643.88;;;21.93;46.93
3697;BME280;60662;48.810;8.872;2023-08-08T11:05:46;96648.50;;;22.11;46.80
3697;BME280;60662;48.810;8.872;2023-08-08T11:06:49;96648.59;;;22.19;46.50
3697;BME280;60662;48.810;8.872;2023-08-08T11:07:51;96643.13;;;21.62;47.71
3697;BME280;60662;48.810;8.872;2023-08-08T11:08:53;96647.22;;;22.05;47.95
3697;BME280;60662;48.810;8.872;2023-08-08T11:09:55;96633.50;;;22.39;48.22
3697;BME280;60662;48.810;8.872;2023-08-08T11:10:57;96645.25;;;21.97;48.31
3697;BME280;60662;48.810;8.872;2023-08-08T11:11:58;96637.72;;;22.12;48.66
3697;BME280;60662;48.810;8.872;2023-08-08T11:13:03;96644.25;;;22.18;47.57
3697;BME280;60662;48.810;8.872;2023-08-08T11:14:15;96650.44;;;22.38;47.35
3697;BME280;60662;48.810;8.872;2023-08-08T11:15:17;96645.13;;;21.99;47.12
3697;BME280;60662;48.810;8.872;2023-08-08T11:16:18;96637.97;;;21.60;47.08
3697;BME280;60662;48.810;8.872;2023-08-08T11:17:21;96634.50;;;21.79;47.74
3697;BME280;60662;48.810;8.872;2023-08-08T11:18:22;96640.09;;;21.26;49.11
3697;BME280;60662;48.810;8.872;2023-08-08T11:19:24;96644.88;;;20.70;49.81
3697;BME280;60662;48.810;8.872;2023-08-08T11:20:29;96642.97;;;20.51;51.17
3697;BME280;60662;48.810;8.872;2023-08-08T11:21:34;96644.44;;;20.65;50.59
3697;BME280;60662;48.810;8.872;2023-08-08T11:22:36;96649.28;;;21.21;48.84
3697;BME280;60662;48.810;8.872;2023-08-08T11:23:38;96640.94;;;21.26;48.30
3697;BME280;60662;48.810;8.872;2023-08-08T11:24:40;96644.88;;;21.32;48.23
3697;BME280;60662;48.810;8.872;2023-08-08T11:25:42;96651.41;;;21.18;49.25
3697;BME280;60662;48.810;8.872;2023-08-08T11:26:44;96642.44;;;21.69;48.17
3697;BME280;60662;48.810;8.872;2023-08-08T11:27:49;96646.50;;;21.83;47.85
3697;BME280;60662;48.810;8.872;2023-08-08T11:28:52;96641.75;;;21.77;48.49
3697;BME280;60662;48.810;8.872;2023-08-08T11:29:56;96633.09;;;21.95;48.04
3697;BME280;60662;48.810;8.872;2023-08-08T11:30:59;96642.19;;;22.02;47.97
3697;BME280;60662;48.810;8.872;2023-08-08T11:32:00;96638.38;;;22.54;47.96
3697;BME280;60662;48.810;8.872;2023-08-08T11:33:05;96641.88;;;22.54;46.02
3697;BME280;60662;48.810;8.872;2023-08-08T11:34:09;96629.28;;;22.27;45.46
3697;BME280;60662;48.810;8.872;2023-08-08T11:35:17;96639.22;;;22.64;45.65
3697;BME280;60662;48.810;8.872;2023-08-08T11:36:19;96637.09;;;23.05;45.32
3697;BME280;60662;48.810;8.872;2023-08-08T11:37:21;96642.56;;;23.04;43.18
3697;BME280;60662;48.810;8.872;2023-08-08T11:38:23;96645.94;;;22.58;44.24
3697;BME280;60662;48.810;8.872;2023-08-08T11:39:25;96638.84;;;23.24;43.55
3697;BME280;60662;48.810;8.872;2023-08-08T11:40:29;96643.22;;;23.43;43.67
3697;BME280;60662;48.810;8.872;2023-08-08T11:41:31;96640.81;;;23.22;45.40
3697;BME280;60662;48.810;8.872;2023-08-08T11:42:32;96629.78;;;22.79;46.10
3697;BME280;60662;48.810;8.872;2023-08-08T11:43:34;96637.06;;;22.77;45.65
3697;BME280;60662;48.810;8.872;2023-08-08T11:44:36;96646.38;;;22.44;45.39
3697;BME280;60662;48.810;8.872;2023-08-08T11:45:38;96635.19;;;22.40;44.12
3697;BME280;60662;48.810;8.872;2023-08-08T11:46:46;96636.97;;;22.59;45.21
3697;BME280;60662;48.810;8.872;2023-08-08T11:47:55;96636.66;;;22.72;44.30
3697;BME280;60662;48.810;8.872;2023-08-08T11:49:06;96621.25;;;23.04;45.10
3697;BME280;60662;48.810;8.872;2023-08-08T11:50:10;96627.81;;;23.09;44.75
3697;BME280;60662;48.810;8.872;2023-08-08T11:51:14;96631.66;;;22.49;44.30
3697;BME280;60662;48.810;8.872;2023-08-08T11:52:18;96634.22;;;22.12;45.15
3697;BME280;60662;48.810;8.872;2023-08-08T11:53:19;96626.66;;;21.78;45.50
3697;BME280;60662;48.810;8.872;2023-08-08T11:54:21;96623.06;;;21.28;45.79
3697;BME280;60662;48.810;8.872;2023-08-08T11:55:28;96618.66;;;21.58;46.30
3697;BME280;60662;48.810;8.872;2023-08-08T11:56:35;96626.38;;;22.00;47.45
3697;BME280;60662;48.810;8.872;2023-08-08T11:57:38;96631.06;;;21.48;46.36
3697;BME280;60662;48.810;8.872;2023-08-08T11:58:40;96628.88;;;21.82;46.79
3697;BME280;60662;48.810;8.872;2023-08-08T11:59:41;96626.94;;;21.65;46.50
3697;BME280;60662;48.810;8.872;2023-08-08T12:00:43;96622.41;;;21.05;46.97
3697;BME280;60662;48.810;8.872;2023-08-08T12:01:49;96623.75;;;20.80;47.24
3697;BME280;60662;48.810;8.872;2023-08-08T12:02:52;96623.53;;;20.50;48.39
3697;BME280;60662;48.810;8.872;2023-08-08T12:03:54;96613.94;;;20.59;48.14
3697;BME280;60662;48.810;8.872;2023-08-08T12:05:03;96622.09;;;21.39;48.50
3697;BME280;60662;48.810;8.872;2023-08-08T12:06:15;96618.97;;;21.65;45.74
3697;BME280;60662;48.810;8.872;2023-08-08T12:07:17;96625.59;;;21.49;45.84
3697;BME280;60662;48.810;8.872;2023-08-08T12:08:20;96616.88;;;21.28;47.01
3697;BME280;60662;48.810;8.872;2023-08-08T12:09:22;96616.03;;;21.17;46.55
3697;BME280;60662;48.810;8.872;2023-08-08T12:10:23;96619.25;;;21.21;46.74
3697;BME280;60662;48.810;8.872;2023-08-08T12:11:26;96611.41;;;21.60;46.95
3697;BME280;60662;48.810;8.872;2023-08-08T12:12:28;96617.00;;;21.67;47.51
3697;BME280;60662;48.810;8.872;2023-08-08T12:13:30;96614.50;;;22.05;47.98
3697;BME280;60662;48.810;8.872;2023-08-08T12:14:39;96600.94;;;21.88;47.50
3697;BME280;60662;48.810;8.872;2023-08-08T12:16:00;96607.78;;;21.91;48.19
3697;BME280;60662;48.810;8.872;2023-08-08T12:17:02;96605.66;;;21.55;48.16
3697;BME280;60662;48.810;8.872;2023-08-08T12:18:04;96609.25;;;21.44;48.75
3697;BME280;60662;48.810;8.872;2023-08-08T12:19:09;96623.72;;;21.61;48.77
3697;BME280;60662;48.810;8.872;2023-08-08T12:20:14;96616.84;;;21.59;48.74
3697;BME280;60662;48.810;8.872;2023-08-08T12:21:16;96615.91;;;21.89;49.00
3697;BME280;60662;48.810;8.872;2023-08-08T12:22:17;96627.06;;;22.22;48.05
3697;BME280;60662;48.810;8.872;2023-08-08T12:23:19;96596.28;;;22.10;47.23
3697;BME280;60662;48.810;8.872;2023-08-08T12:24:20;96608.31;;;22.04;47.47
3697;BME280;60662;48.810;8.872;2023-08-08T12:25:22;96615.13;;;22.56;47.15
3697;BME280;60662;48.810;8.872;2023-08-08T12:26:23;96612.22;;;22.49;47.20
3697;BME280;60662;48.810;8.872;2023-08-08T12:27:25;96612.09;;;22.88;46.88
3697;BME280;60662;48.810;8.872;2023-08-08T12:28:27;96610.09;;;22.53;47.66
3697;BME280;60662;48.810;8.872;2023-08-08T12:29:28;96616.44;;;22.12;47.84
3697;BME280;60662;48.810;8.872;2023-08-08T12:30:30;96605.25;;;21.69;48.68
3697;BME280;60662;48.810;8.872;2023-08-08T12:31:32;96597.69;;;21.55;49.77
3697;BME280;60662;48.810;8.872;2023-08-08T12:32:34;96602.34;;;21.73;50.04
3697;BME280;60662;48.810;8.872;2023-08-08T12:33:35;96603.56;;;21.68;50.67
3697;BME280;60662;48.810;8.872;2023-08-08T12:34:37;96611.63;;;22.35;49.97
3697;BME280;60662;48.810;8.872;2023-08-08T12:35:38;96611.25;;;22.40;49.90
3697;BME280;60662;48.810;8.872;2023-08-08T12:36:40;96609.47;;;22.69;50.07
3697;BME280;60662;48.810;8.872;2023-08-08T12:37:42;96612.13;;;22.78;50.01
3697;BME280;60662;48.810;8.872;2023-08-08T12:38:43;96610.09;;;22.90;49.00
3697;BME280;60662;48.810;8.872;2023-08-08T12:39:46;96604.75;;;23.00;48.67
3697;BME280;60662;48.810;8.872;2023-08-08T12:40:47;96613.38;;;22.07;49.25
3697;BME280;60662;48.810;8.872;2023-08-08T12:41:49;96595.75;;;21.77;50.56
3697;BME280;60662;48.810;8.872;2023-08-08T12:42:50;96609.84;;;22.36;49.82
3697;BME280;60662;48.810;8.872;2023-08-08T12:43:52;96613.56;;;22.63;49.36
3697;BME280;60662;48.810;8.872;2023-08-08T12:44:54;96610.56;;;22.09;49.52
3697;BME280;60662;48.810;8.872;2023-08-08T12:45:55;96612.44;;;21.38;50.35
3697;BME280;60662;48.810;8.872;2023-08-08T12:46:57;96611.34;;;21.50;49.79
3697;BME280;60662;48.810;8.872;2023-08-08T12:47:59;96595.97;;;21.54;49.60
3697;BME280;60662;48.810;8.872;2023-08-08T12:49:00;96603.00;;;21.75;50.01